Time;durP1;ratioP1;P1;durP2;ratioP2;P2;SDS_P1;SDS_P2;PMS_P1;PMS_P2;Temp;Humidity;BMP_temperature;BMP_pressure;BME280_temperature;BME280_humidity;BME280_pressure;Samples;Min_cycle;Max_cycle;Signal;HPM_P1;HPM_P2
2023/03/20 00:01:50;;;;;;;3.95;2.67;;;;;;;17.17;52.67;101219.22;5079876;27;98727;-75
2023/03/20 00:04:16;;;;;;;7.43;2.70;;;;;;;17.42;52.12;101219.56;5078838;27;99525;-74
2023/03/20 00:06:42;;;;;;;4.90;2.60;;;;;;;17.12;52.83;101215.97;5067812;27;98094;-73
2023/03/20 00:09:10;;;;;;;5.85;2.75;;;;;;;17.10;53.02;101218.72;5077964;27;96918;-74
2023/03/20 00:11:44;;;;;;;6.35;2.67;;;;;;;16.96;53.42;101215.94;5076003;27;99867;-74
2023/03/20 00:14:13;;;;;;;5.93;2.83;;;;;;;16.83;54.04;101217.53;5076104;27;100335;-72
2023/03/20 00:16:42;;;;;;;4.68;2.90;;;;;;;16.85;54.08;101215.66;5071873;27;98369;-72
2023/03/20 00:19:16;;;;;;;6.68;2.63;;;;;;;16.69;54.42;101223.59;5076319;27;97354;-72
2023/03/20 00:21:42;;;;;;;6.10;2.53;;;;;;;16.77;54.23;101217.00;5075499;27;99125;-72
2023/03/20 00:24:09;;;;;;;4.32;2.55;;;;;;;16.58;54.83;101219.75;5074082;27;99156;-72
2023/03/20 00:26:37;;;;;;;4.22;2.40;;;;;;;16.64;54.79;101220.31;5085753;27;97337;-73
2023/03/20 00:29:05;;;;;;;4.95;2.85;;;;;;;16.69;54.43;101220.06;5076918;27;97476;-72
2023/03/20 00:31:34;;;;;;;4.20;2.40;;;;;;;16.54;54.98;101220.88;5081112;27;98935;-73
2023/03/20 00:34:02;;;;;;;6.97;2.67;;;;;;;16.27;55.90;101224.03;5084819;27;99142;-73
2023/03/20 00:36:30;;;;;;;4.72;2.47;;;;;;;16.28;55.91;101216.88;5079751;27;97003;-72
2023/03/20 00:38:57;;;;;;;6.38;2.70;;;;;;;16.43;55.26;101204.56;5075130;27;96959;-73
2023/03/20 00:41:27;;;;;;;5.97;2.75;;;;;;;16.33;55.80;101207.72;5078138;27;99889;-72
2023/03/20 00:43:56;;;;;;;5.93;2.88;;;;;;;16.42;55.54;101202.81;5072361;27;99684;-73
2023/03/20 00:46:23;;;;;;;5.90;2.60;;;;;;;16.27;56.07;101208.03;5075920;27;98734;-73
2023/03/20 00:48:50;;;;;;;7.38;2.85;;;;;;;16.34;55.85;101198.75;5077520;27;97044;-72
2023/03/20 00:51:17;;;;;;;4.75;3.05;;;;;;;16.31;55.86;101201.59;5083611;27;98929;-73
2023/03/20 00:53:45;;;;;;;6.35;3.15;;;;;;;16.39;55.87;101203.88;5078439;27;99355;-73
2023/03/20 00:56:28;;;;;;;5.82;3.00;;;;;;;16.23;56.29;101197.59;5077520;27;97210;-72
2023/03/20 00:58:55;;;;;;;5.65;3.00;;;;;;;16.18;56.41;101203.16;5076716;27;97468;-73
2023/03/20 01:01:21;;;;;;;7.45;2.80;;;;;;;16.13;56.27;101201.69;5082339;27;98937;-72
2023/03/20 01:03:48;;;;;;;6.40;2.55;;;;;;;15.97;56.87;101206.91;5077039;27;99127;-73
2023/03/20 01:06:14;;;;;;;6.20;3.35;;;;;;;15.60;57.92;101202.56;5083011;27;97126;-72
2023/03/20 01:08:41;;;;;;;7.03;2.88;;;;;;;15.91;57.28;101204.56;5080082;27;96748;-71
2023/03/20 01:11:12;;;;;;;4.70;2.92;;;;;;;15.76;57.87;101210.66;5078637;27;98202;-73
2023/03/20 01:13:40;;;;;;;6.55;2.83;;;;;;;15.67;57.91;101208.47;5077073;27;100912;-74
2023/03/20 01:16:19;;;;;;;3.65;2.55;;;;;;;15.70;58.17;101205.63;5072809;27;99207;-72
2023/03/20 01:18:45;;;;;;;7.45;3.00;;;;;;;15.60;58.08;101207.03;5085640;27;97878;-73
2023/03/20 01:21:12;;;;;;;5.30;2.72;;;;;;;15.73;57.95;101209.03;5076755;27;101396;-72
2023/03/20 01:23:39;;;;;;;5.70;2.60;;;;;;;15.62;58.09;101205.16;5076141;27;101893;-72
2023/03/20 01:26:16;;;;;;;6.82;2.85;;;;;;;15.79;57.61;101213.19;5082227;27;97664;-73
2023/03/20 01:28:43;;;;;;;5.38;2.97;;;;;;;15.69;57.76;101207.41;5076328;27;97394;-74
2023/03/20 01:31:10;;;;;;;7.38;2.75;;;;;;;15.59;58.04;101211.50;5083569;27;99154;-73
2023/03/20 01:33:37;;;;;;;7.40;3.00;;;;;;;15.53;58.22;101207.34;5084312;27;99317;-73
2023/03/20 01:36:04;;;;;;;4.47;2.78;;;;;;;15.81;57.68;101211.31;5086160;27;97213;-73
2023/03/20 01:38:30;;;;;;;9.18;3.22;;;;;;;15.86;57.57;101214.59;5079350;27;97791;-73
2023/03/20 01:41:01;;;;;;;4.13;2.55;;;;;;;15.80;57.52;101210.44;5079449;27;99290;-72
2023/03/20 01:43:28;;;;;;;4.88;2.88;;;;;;;15.59;58.14;101211.50;5076910;27;99824;-72
2023/03/20 01:46:01;;;;;;;8.48;3.47;;;;;;;15.76;57.96;101214.19;5080577;27;98731;-72
2023/03/20 01:48:36;;;;;;;5.30;3.40;;;;;;;15.71;57.97;101207.34;5089095;27;96841;-72
2023/03/20 01:51:03;;;;;;;3.47;2.80;;;;;;;15.83;57.45;101201.41;5074153;27;99958;-74
2023/03/20 01:53:30;;;;;;;5.97;3.00;;;;;;;15.53;58.27;101206.47;5080862;27;98851;-72
2023/03/20 01:55:59;;;;;;;7.47;3.33;;;;;;;15.68;57.94;101219.03;5077404;27;97204;-73
2023/03/20 01:58:31;;;;;;;5.18;2.60;;;;;;;15.45;58.35;101209.47;5085818;27;96871;-74
2023/03/20 02:00:59;;;;;;;5.45;2.65;;;;;;;15.45;58.33;101217.44;5075377;27;99059;-74
2023/03/20 02:03:26;;;;;;;5.03;2.90;;;;;;;15.45;58.63;101222.78;5080173;27;99173;-73
2023/03/20 02:05:55;;;;;;;4.53;3.15;;;;;;;15.62;58.06;101227.31;5076095;27;96937;-73
2023/03/20 02:08:26;;;;;;;6.75;3.30;;;;;;;15.49;58.57;101227.00;5082237;27;97319;-73
2023/03/20 02:10:54;;;;;;;6.10;2.92;;;;;;;15.70;58.04;101225.13;5077777;27;99278;-73
2023/03/20 02:13:21;;;;;;;8.07;3.20;;;;;;;15.76;57.78;101224.84;5080810;27;99283;-72
2023/03/20 02:16:04;;;;;;;5.35;2.75;;;;;;;15.89;57.76;101227.75;5074848;27;96858;-74
2023/03/20 02:18:31;;;;;;;6.53;3.05;;;;;;;15.82;58.01;101223.66;5076220;27;98075;-72
2023/03/20 02:21:43;;;;;;;3.97;2.90;;;;;;;15.85;57.94;101226.19;5079631;27;98911;-72
2023/03/20 02:24:34;;;;;;;7.03;3.05;;;;;;;15.75;58.47;101216.94;5083185;27;99308;-74
2023/03/20 02:27:09;;;;;;;8.35;3.40;;;;;;;15.85;57.85;101223.53;5078877;27;97040;-74
2023/03/20 02:30:10;;;;;;;4.70;3.17;;;;;;;15.83;58.04;101215.59;5080891;27;96979;-72
2023/03/20 02:33:13;;;;;;;3.47;2.92;;;;;;;15.71;58.47;101215.34;5082524;27;99109;-72
2023/03/20 02:36:14;;;;;;;7.13;3.17;;;;;;;15.70;58.37;101219.81;5082131;27;99432;-73
2023/03/20 02:38:58;;;;;;;5.70;3.20;;;;;;;15.61;58.47;101217.63;5053845;27;96928;-71
2023/03/20 02:41:30;;;;;;;5.82;2.97;;;;;;;15.63;58.53;101221.03;5082294;27;97324;-72
2023/03/20 02:44:04;;;;;;;7.30;3.47;;;;;;;15.67;58.54;101219.97;5078118;27;100984;-72
2023/03/20 02:46:40;;;;;;;8.32;3.10;;;;;;;15.80;57.86;101225.56;5082622;27;99159;-73
2023/03/20 02:49:15;;;;;;;5.55;3.50;;;;;;;15.70;58.27;101218.94;5073784;27;98654;-72
2023/03/20 02:51:48;;;;;;;5.18;3.53;;;;;;;15.86;57.82;101217.25;5078764;27;96824;-73
2023/03/20 02:54:24;;;;;;;6.50;3.17;;;;;;;15.97;57.62;101219.38;5078015;27;100738;-72
2023/03/20 02:57:00;;;;;;;6.10;3.65;;;;;;;15.89;57.77;101222.41;5076199;27;98417;-72
2023/03/20 02:59:31;;;;;;;;;;;;;;;15.90;58.11;101229.47;5077203;27;97059;-72
2023/03/20 03:02:04;;;;;;;8.73;3.80;;;;;;;15.86;57.98;101227.94;5082628;27;96779;-72
2023/03/20 03:04:36;;;;;;;7.03;3.50;;;;;;;15.87;57.96;101222.53;5075371;27;98198;-73
2023/03/20 03:07:05;;;;;;;7.60;3.83;;;;;;;15.91;57.90;101216.09;5076447;27;99122;-72
2023/03/20 03:09:36;;;;;;;6.65;3.90;;;;;;;15.61;58.88;101222.06;5079809;27;96753;-72
2023/03/20 03:12:09;;;;;;;7.45;3.83;;;;;;;15.81;58.38;101220.16;5080347;27;96715;-73
2023/03/20 03:14:40;;;;;;;6.97;4.25;;;;;;;15.90;58.31;101224.16;5072909;27;99339;-72
2023/03/20 03:17:10;;;;;;;4.55;3.72;;;;;;;15.79;58.27;101224.69;5077768;27;98288;-73
2023/03/20 03:19:40;;;;;;;5.53;3.80;;;;;;;16.03;57.73;101230.59;5073166;27;96985;-74
2023/03/20 03:22:07;;;;;;;8.13;3.72;;;;;;;15.93;57.93;101219.56;5084599;27;97723;-72
2023/03/20 03:24:37;;;;;;;9.63;3.95;;;;;;;15.81;58.49;101229.97;5075228;27;101909;-72
2023/03/20 03:27:10;;;;;;;7.85;4.53;;;;;;;15.74;58.79;101232.06;5079203;27;99175;-72
2023/03/20 03:29:39;;;;;;;6.25;3.72;;;;;;;15.71;58.88;101234.00;5075441;27;97124;-73
2023/03/20 03:32:07;;;;;;;6.47;3.92;;;;;;;15.74;58.64;101234.72;5084093;27;98578;-73
2023/03/20 03:34:36;;;;;;;5.63;4.00;;;;;;;15.61;59.23;101240.72;5074856;27;99253;-72
2023/03/20 03:37:09;;;;;;;7.35;4.88;;;;;;;15.66;59.38;101238.69;5081283;27;99530;-72
2023/03/20 03:39:45;;;;;;;9.32;4.63;;;;;;;15.83;58.72;101230.72;5080579;27;96859;-72
2023/03/20 03:42:21;;;;;;;8.77;4.93;;;;;;;15.62;59.50;101232.63;5079360;27;97189;-72
2023/03/20 03:44:54;;;;;;;7.68;5.13;;;;;;;15.49;59.68;101229.66;5076058;27;99739;-72
2023/03/20 03:47:24;;;;;;;7.22;4.78;;;;;;;15.55;59.28;101225.91;5077203;27;98900;-72
2023/03/20 03:49:56;;;;;;;8.52;5.43;;;;;;;15.48;59.81;101229.78;5080419;27;97423;-72
2023/03/20 03:52:25;;;;;;;6.22;5.28;;;;;;;15.57;59.78;101233.81;5090355;27;96807;-72
2023/03/20 03:55:00;;;;;;;8.52;5.60;;;;;;;15.51;59.64;101222.47;5083593;27;102659;-72
2023/03/20 03:57:31;;;;;;;7.32;5.30;;;;;;;15.63;59.30;101228.19;5080678;27;97590;-73
2023/03/20 03:59:59;;;;;;;9.35;6.32;;;;;;;15.50;59.87;101228.75;5079316;27;97116;-73
2023/03/20 04:02:26;;;;;;;8.20;5.70;;;;;;;15.67;59.50;101222.66;5086140;27;96928;-73
2023/03/20 04:04:54;;;;;;;10.23;5.95;;;;;;;15.51;60.00;101229.59;5084360;27;100019;-74
2023/03/20 04:07:21;;;;;;;10.10;5.70;;;;;;;15.54;59.85;101233.03;5077267;27;99115;-74
2023/03/20 04:09:47;;;;;;;8.18;6.10;;;;;;;15.46;60.14;101239.63;5082438;27;96771;-73
2023/03/20 04:12:33;;;;;;;12.38;5.50;;;;;;;15.57;59.95;101239.13;5080688;27;96941;-73
2023/03/20 04:14:59;;;;;;;9.77;6.43;;;;;;;15.38;60.39;101239.97;5078455;27;99611;-73
2023/03/20 04:17:26;;;;;;;9.82;6.60;;;;;;;15.63;59.80;101239.69;5082701;27;99582;-73
2023/03/20 04:19:52;;;;;;;8.75;5.70;;;;;;;15.57;60.02;101250.66;5087553;27;96772;-73
2023/03/20 04:22:19;;;;;;;10.23;6.53;;;;;;;15.58;60.06;101248.84;5077195;27;97340;-72
2023/03/20 04:24:46;;;;;;;11.15;5.95;;;;;;;15.47;60.29;101254.66;5079317;27;98486;-73
2023/03/20 04:27:12;;;;;;;10.70;6.78;;;;;;;15.61;59.92;101262.03;5080340;27;99251;-74
2023/03/20 04:29:40;;;;;;;11.82;6.18;;;;;;;15.72;59.66;101249.06;5079341;27;97047;-73
2023/03/20 04:32:07;;;;;;;11.60;5.90;;;;;;;15.54;60.34;101261.47;5085593;27;97458;-72
2023/03/20 04:34:33;;;;;;;10.77;6.60;;;;;;;15.47;60.45;101258.19;5081726;27;98802;-73
2023/03/20 04:37:00;;;;;;;10.75;6.20;;;;;;;15.57;60.09;101263.97;5075897;27;98187;-72
2023/03/20 04:39:27;;;;;;;11.38;6.75;;;;;;;15.41;60.73;101258.50;5077296;27;96978;-74
2023/03/20 04:41:53;;;;;;;9.70;6.28;;;;;;;15.48;60.62;101262.59;5082522;27;96965;-74
2023/03/20 04:44:19;;;;;;;8.35;6.07;;;;;;;15.35;60.83;101265.91;5095415;27;100338;-72
2023/03/20 04:46:48;;;;;;;7.78;6.03;;;;;;;15.37;61.04;101259.56;5084653;27;98851;-73
2023/03/20 04:49:14;;;;;;;12.70;6.95;;;;;;;15.19;61.65;101255.09;5093948;27;96751;-72
2023/03/20 04:51:41;;;;;;;13.82;7.57;;;;;;;15.25;61.35;101254.81;5087993;27;96877;-71
2023/03/20 04:54:07;;;;;;;11.20;7.30;;;;;;;15.47;60.97;101266.19;5088998;27;97315;-71
2023/03/20 04:56:34;;;;;;;11.13;6.95;;;;;;;15.56;60.45;101270.22;5078915;27;99101;-71
2023/03/20 04:59:00;;;;;;;12.13;7.40;;;;;;;15.69;60.19;101263.38;5078056;27;97282;-72
2023/03/20 05:01:27;;;;;;;9.68;6.90;;;;;;;15.59;60.43;101266.56;5079174;27;96908;-72
2023/03/20 05:03:59;;;;;;;10.40;6.65;;;;;;;15.46;61.18;101264.47;5080973;27;98912;-73
2023/03/20 05:06:25;;;;;;;11.73;6.88;;;;;;;15.64;60.43;101259.22;5084377;27;97700;-74
2023/03/20 05:08:52;;;;;;;11.48;6.55;;;;;;;15.67;60.65;101264.41;5084493;27;97484;-74
2023/03/20 05:11:18;;;;;;;11.40;7.28;;;;;;;15.38;61.17;101263.94;5081692;27;96930;-73
2023/03/20 05:13:45;;;;;;;11.75;7.20;;;;;;;15.29;61.63;101260.88;5079018;27;99115;-71
2023/03/20 05:16:11;;;;;;;13.23;7.72;;;;;;;15.50;61.29;101268.69;5079054;27;100082;-77
2023/03/20 05:18:38;;;;;;;10.48;7.15;;;;;;;15.63;60.84;101257.47;5084237;27;98728;-76
2023/03/20 05:21:07;;;;;;;12.52;7.63;;;;;;;15.75;60.38;101268.41;5095741;27;97277;-76
2023/03/20 05:23:34;;;;;;;13.85;8.60;;;;;;;15.80;60.31;101262.88;5079507;27;98975;-76
2023/03/20 05:26:01;;;;;;;15.70;8.00;;;;;;;15.61;60.75;101256.72;5083697;27;99208;-76
2023/03/20 05:28:28;;;;;;;11.10;7.60;;;;;;;15.74;60.78;101273.81;5086732;27;97223;-76
2023/03/20 05:30:55;;;;;;;14.10;9.23;;;;;;;15.63;61.34;101270.78;5084466;27;98511;-75
2023/03/20 05:33:21;;;;;;;15.68;8.80;;;;;;;15.46;62.03;101274.25;5081069;27;99795;-76
2023/03/20 05:35:48;;;;;;;12.75;8.35;;;;;;;15.24;62.44;101271.72;5089020;27;100699;-75
2023/03/20 05:38:15;;;;;;;12.65;9.00;;;;;;;15.36;62.34;101268.47;5091566;27;96953;-76
2023/03/20 05:40:42;;;;;;;16.40;9.88;;;;;;;15.52;62.11;101269.53;5078747;27;96731;-76
2023/03/20 05:43:08;;;;;;;15.57;10.20;;;;;;;15.61;61.94;101267.38;5084473;27;98165;-75
2023/03/20 05:45:35;;;;;;;12.00;9.73;;;;;;;15.34;62.74;101265.03;5085729;27;99376;-76
2023/03/20 05:48:01;;;;;;;13.98;10.07;;;;;;;15.45;62.21;101272.50;5082010;27;97631;-75
2023/03/20 05:50:30;;;;;;;15.30;10.63;;;;;;;15.29;63.01;101266.19;5081833;27;96962;-75
2023/03/20 05:52:57;;;;;;;14.77;10.43;;;;;;;15.40;62.85;101269.22;5082738;27;98588;-75
2023/03/20 05:55:25;;;;;;;16.30;11.15;;;;;;;15.42;62.67;101267.34;5082474;27;98973;-76
2023/03/20 05:57:52;;;;;;;14.73;10.60;;;;;;;15.36;62.91;101276.47;5079036;27;97043;-75
2023/03/20 06:00:19;;;;;;;16.73;10.57;;;;;;;15.39;62.92;101273.66;5083249;27;96772;-77
2023/03/20 06:02:46;;;;;;;16.98;11.18;;;;;;;15.48;62.64;101277.72;5081989;27;99093;-73
2023/03/20 06:05:12;;;;;;;15.38;11.27;;;;;;;15.33;62.81;101284.59;5073954;27;98744;-75
2023/03/20 06:07:39;;;;;;;17.08;11.50;;;;;;;15.31;63.09;101280.28;5070840;27;98753;-75
2023/03/20 06:10:08;;;;;;;16.88;11.35;;;;;;;15.27;63.14;101286.69;5078063;27;96802;-75
2023/03/20 06:12:36;;;;;;;15.88;11.27;;;;;;;15.40;62.77;101296.72;5080167;27;99002;-75
2023/03/20 06:15:04;;;;;;;18.33;12.85;;;;;;;15.32;62.94;101309.50;5081235;27;97929;-75
2023/03/20 06:17:30;;;;;;;21.85;13.13;;;;;;;14.90;64.26;101311.47;5076877;27;97881;-76
2023/03/20 06:19:57;;;;;;;19.58;12.95;;;;;;;15.33;63.29;101311.22;5082849;27;97208;-76
2023/03/20 06:22:23;;;;;;;19.33;13.20;;;;;;;15.30;63.22;101316.69;5088683;27;99347;-75
2023/03/20 06:24:50;;;;;;;19.13;14.10;;;;;;;15.28;63.00;101315.91;5081546;27;97462;-78
2023/03/20 06:27:17;;;;;;;17.70;12.90;;;;;;;15.35;62.73;101325.34;5072669;27;97382;-77
2023/03/20 06:29:45;;;;;;;20.40;13.32;;;;;;;15.44;62.09;101316.91;5083628;27;96861;-72
2023/03/20 06:32:13;;;;;;;24.85;15.00;;;;;;;15.13;63.01;101329.91;5081203;27;99405;-73
2023/03/20 06:34:41;;;;;;;22.42;16.40;;;;;;;15.09;63.08;101331.88;5080335;27;100762;-72
2023/03/20 06:37:07;;;;;;;21.80;15.43;;;;;;;15.25;62.58;101333.81;5075589;27;96899;-73
2023/03/20 06:39:34;;;;;;;27.77;16.70;;;;;;;15.07;63.31;101335.50;5077768;27;97598;-72
2023/03/20 06:42:00;;;;;;;26.60;17.98;;;;;;;15.30;61.69;101337.13;5086423;27;98861;-73
2023/03/20 06:44:27;;;;;;;26.58;17.67;;;;;;;15.02;62.78;101340.19;5075558;27;98801;-72
2023/03/20 06:46:55;;;;;;;30.10;20.30;;;;;;;14.98;62.90;101349.22;5077000;27;97255;-72
2023/03/20 06:49:21;;;;;;;32.15;21.33;;;;;;;15.00;62.70;101347.38;5082374;27;96862;-72
2023/03/20 06:51:48;;;;;;;36.35;22.00;;;;;;;15.20;62.08;101346.47;5080486;27;98186;-75
2023/03/20 06:54:15;;;;;;;33.03;21.13;;;;;;;15.20;61.96;101347.34;5082829;27;97600;-73
2023/03/20 06:56:41;;;;;;;32.65;21.20;;;;;;;15.26;61.57;101352.38;5079239;27;96689;-74
2023/03/20 06:59:08;;;;;;;40.45;23.02;;;;;;;15.27;61.64;101351.47;5087595;27;96844;-72
2023/03/20 07:01:35;;;;;;;40.33;23.25;;;;;;;15.23;61.53;101352.50;5077118;27;97649;-73
2023/03/20 07:04:03;;;;;;;40.53;23.50;;;;;;;15.13;62.08;101353.88;5077544;27;99236;-75
2023/03/20 07:06:30;;;;;;;40.83;23.08;;;;;;;15.35;61.63;101357.31;5086838;27;97173;-75
2023/03/20 07:08:56;;;;;;;40.15;23.30;;;;;;;14.98;62.28;101362.53;5085092;27;96983;-75
2023/03/20 07:11:23;;;;;;;42.22;24.75;;;;;;;14.86;62.87;101363.06;5075294;27;98946;-75
2023/03/20 07:13:50;;;;;;;42.70;24.70;;;;;;;15.06;62.41;101366.59;5080828;27;100255;-74
2023/03/20 07:16:16;;;;;;;44.40;24.13;;;;;;;14.72;63.63;101377.81;5084466;27;96786;-74
2023/03/20 07:18:43;;;;;;;39.10;22.88;;;;;;;14.95;63.01;101378.63;5079833;27;97168;-75
2023/03/20 07:21:17;;;;;;;39.53;22.25;;;;;;;14.92;62.69;101370.78;5087631;27;98908;-73
2023/03/20 07:23:43;;;;;;;37.50;22.50;;;;;;;14.61;63.88;101374.75;5080907;27;99145;-73
2023/03/20 07:26:10;;;;;;;39.50;23.52;;;;;;;14.83;62.68;101380.03;5084151;27;98603;-72
2023/03/20 07:28:39;;;;;;;40.25;22.38;;;;;;;14.78;62.99;101376.69;5075449;27;98898;-72
2023/03/20 07:31:06;;;;;;;37.50;21.27;;;;;;;14.67;62.82;101373.63;5073099;27;99203;-71
2023/03/20 07:33:33;;;;;;;41.78;23.17;;;;;;;14.77;62.76;101384.75;5090234;27;99015;-73
2023/03/20 07:35:59;;;;;;;36.30;20.20;;;;;;;14.74;62.88;101385.75;5079649;27;97169;-73
2023/03/20 07:38:27;;;;;;;37.60;21.30;;;;;;;14.56;63.22;101387.41;5079630;27;96810;-73
2023/03/20 07:40:54;;;;;;;36.88;20.33;;;;;;;14.77;62.53;101384.75;5086203;27;98882;-73
2023/03/20 07:43:21;;;;;;;35.50;19.58;;;;;;;14.93;61.11;101388.47;5083453;27;98227;-72
2023/03/20 07:45:48;;;;;;;33.90;19.58;;;;;;;15.17;60.51;101387.41;5083017;27;97169;-73
2023/03/20 07:48:14;;;;;;;37.70;19.98;;;;;;;15.01;60.88;101384.56;5086097;27;97403;-73
2023/03/20 07:50:40;;;;;;;38.92;20.83;;;;;;;15.30;60.38;101390.38;5076169;27;99410;-73
2023/03/20 07:53:07;;;;;;;40.60;21.45;;;;;;;15.46;59.75;101381.63;5078302;27;102539;-73
2023/03/20 07:55:35;;;;;;;35.70;19.58;;;;;;;15.40;59.33;101378.38;5092706;27;97083;-73
2023/03/20 07:58:02;;;;;;;36.50;20.23;;;;;;;15.54;59.33;101378.66;5081691;27;97188;-77
2023/03/20 08:00:31;;;;;;;38.17;20.27;;;;;;;15.87;58.23;101385.09;5090858;27;100254;-73
2023/03/20 08:02:58;;;;;;;34.20;19.75;;;;;;;15.89;58.21;101390.31;5080755;27;97684;-72
2023/03/20 08:05:25;;;;;;;41.80;20.88;;;;;;;15.60;58.48;101389.03;5090767;27;97218;-72
2023/03/20 08:07:51;;;;;;;36.35;19.45;;;;;;;15.65;58.48;101391.47;5087903;27;97015;-73
2023/03/20 08:10:18;;;;;;;37.30;19.35;;;;;;;16.05;57.70;101391.34;5087841;27;99347;-73
2023/03/20 08:12:46;;;;;;;38.03;20.08;;;;;;;16.03;57.47;101398.53;5078633;27;101371;-73
2023/03/20 08:15:12;;;;;;;39.05;20.08;;;;;;;16.07;57.06;101400.13;5081715;27;96778;-73
2023/03/20 08:17:42;;;;;;;34.95;19.42;;;;;;;15.79;57.45;101399.69;5081146;27;96882;-73
2023/03/20 08:20:09;;;;;;;40.85;20.42;;;;;;;15.86;57.63;101409.13;5084344;27;99297;-74
2023/03/20 08:22:36;;;;;;;39.25;20.48;;;;;;;15.88;57.28;101408.09;5080652;27;98710;-72
2023/03/20 08:25:02;;;;;;;39.17;20.27;;;;;;;16.01;56.92;101421.75;5076108;27;97002;-73
2023/03/20 08:27:29;;;;;;;40.40;20.95;;;;;;;15.95;56.91;101424.69;5077679;27;97270;-72
2023/03/20 08:29:57;;;;;;;38.97;19.73;;;;;;;15.69;57.15;101417.03;5089642;27;99355;-73
2023/03/20 08:32:25;;;;;;;40.10;19.80;;;;;;;15.74;57.50;101413.25;5082820;27;99332;-73
2023/03/20 08:34:53;;;;;;;37.13;18.98;;;;;;;15.84;56.82;101413.66;5091991;27;96716;-73
2023/03/20 08:37:20;;;;;;;41.85;20.65;;;;;;;15.69;57.33;101412.56;5088713;27;97047;-72
2023/03/20 08:39:47;;;;;;;39.00;20.77;;;;;;;15.54;58.17;101410.63;5090689;27;99175;-72
2023/03/20 08:42:14;;;;;;;37.42;19.95;;;;;;;15.62;57.90;101405.78;5086151;27;99181;-72
2023/03/20 08:44:41;;;;;;;33.67;19.10;;;;;;;15.93;57.00;101402.59;5091613;27;96761;-73
2023/03/20 08:47:10;;;;;;;42.13;19.70;;;;;;;16.21;55.80;101397.63;5072572;27;97590;-72
2023/03/20 08:49:36;;;;;;;40.38;21.05;;;;;;;16.39;55.26;101411.03;5084263;27;99001;-73
2023/03/20 08:52:03;;;;;;;34.60;19.25;;;;;;;16.07;55.28;101404.59;5092357;27;99065;-73
2023/03/20 08:54:29;;;;;;;38.30;19.25;;;;;;;15.98;55.45;101411.22;5084245;27;96834;-72
2023/03/20 08:56:56;;;;;;;34.85;18.98;;;;;;;16.16;55.31;101415.66;5070904;27;97062;-73
2023/03/20 08:59:22;;;;;;;36.47;18.98;;;;;;;16.06;55.12;101411.72;5085968;27;101668;-72
2023/03/20 09:01:49;;;;;;;37.95;18.15;;;;;;;16.16;55.16;101418.34;5075060;27;98922;-74
2023/03/20 09:04:17;;;;;;;33.63;18.52;;;;;;;16.20;54.40;101414.59;5076470;27;100408;-73
2023/03/20 09:06:43;;;;;;;32.95;18.63;;;;;;;16.27;53.53;101407.16;5069629;27;97313;-73
2023/03/20 09:09:10;;;;;;;32.47;17.90;;;;;;;16.52;52.97;101406.81;5071780;27;99318;-72
2023/03/20 09:11:37;;;;;;;32.78;17.20;;;;;;;16.68;51.89;101402.47;5071353;27;98727;-72
2023/03/20 09:14:03;;;;;;;33.33;16.42;;;;;;;16.46;52.23;101418.66;5070943;27;96823;-72
2023/03/20 09:16:29;;;;;;;33.03;17.20;;;;;;;16.51;52.50;101411.28;5074256;27;97288;-74
2023/03/20 09:18:56;;;;;;;30.80;16.50;;;;;;;16.37;52.52;101423.56;5076424;27;98000;-73
2023/03/20 09:21:26;;;;;;;28.08;15.52;;;;;;;16.00;53.66;101416.47;5071767;27;98844;-74
2023/03/20 09:23:53;;;;;;;29.42;14.95;;;;;;;16.00;52.68;101404.03;5078103;27;97071;-72
2023/03/20 09:26:24;;;;;;;23.48;13.57;;;;;;;16.03;52.29;101403.84;5073190;27;96877;-75
2023/03/20 09:28:50;;;;;;;28.13;13.88;;;;;;;15.91;52.96;101404.44;5079538;27;99929;-73
2023/03/20 09:31:16;;;;;;;23.52;13.60;;;;;;;16.16;52.45;101404.13;5079087;27;99957;-73
2023/03/20 09:33:43;;;;;;;23.58;13.98;;;;;;;16.38;51.60;101411.97;5075215;27;96908;-73
2023/03/20 09:36:10;;;;;;;28.17;13.48;;;;;;;16.67;50.92;101404.25;5081374;27;96871;-72
2023/03/20 09:38:40;;;;;;;22.20;12.60;;;;;;;17.06;49.86;101405.88;5086157;27;98858;-73
2023/03/20 09:41:16;;;;;;;25.05;13.63;;;;;;;16.57;51.16;101404.78;5086744;27;98967;-73
2023/03/20 09:43:55;;;;;;;23.27;13.18;;;;;;;16.88;50.48;101404.13;5080214;27;97469;-73
2023/03/20 09:46:37;;;;;;;22.17;12.55;;;;;;;17.02;49.58;101399.81;5080279;27;97494;-73
2023/03/20 09:49:14;;;;;;;22.33;12.90;;;;;;;17.22;49.13;101390.75;5075888;27;99219;-73
2023/03/20 09:51:46;;;;;;;29.17;14.73;;;;;;;17.26;49.31;101402.16;5080086;27;100492;-73
2023/03/20 09:54:24;;;;;;;20.52;11.30;;;;;;;17.22;48.45;101401.44;5079953;27;97200;-73
2023/03/20 09:56:52;;;;;;;17.85;10.73;;;;;;;17.25;48.58;101398.63;5071495;27;97487;-73
2023/03/20 09:59:20;;;;;;;20.15;11.63;;;;;;;16.51;50.15;101416.63;5080101;27;100479;-73
2023/03/20 10:01:51;;;;;;;17.83;10.73;;;;;;;16.80;49.50;101417.88;5077746;27;100141;-73
2023/03/20 10:04:18;;;;;;;19.92;9.82;;;;;;;16.31;49.89;101420.28;5079493;27;96816;-73
2023/03/20 10:06:45;;;;;;;19.70;9.60;;;;;;;16.46;49.48;101420.47;5075275;27;97302;-74
2023/03/20 10:09:17;;;;;;;19.10;9.68;;;;;;;16.01;50.46;101421.75;5073233;27;99261;-72
2023/03/20 10:12:07;;;;;;;16.80;10.00;;;;;;;16.41;49.81;101422.50;5078911;27;102739;-73
2023/03/20 10:14:43;;;;;;;20.85;10.32;;;;;;;16.61;49.19;101423.25;5072764;27;96796;-73
2023/03/20 10:17:33;;;;;;;17.92;10.60;;;;;;;16.96;48.05;101421.47;5075705;27;97375;-72
2023/03/20 10:20:22;;;;;;;18.88;9.48;;;;;;;16.74;48.35;101420.84;5078082;27;97983;-73
2023/03/20 10:22:53;;;;;;;17.48;9.52;;;;;;;16.32;49.28;101422.00;5079665;27;99048;-74
2023/03/20 10:25:26;;;;;;;19.92;9.07;;;;;;;16.35;49.12;101427.16;5076133;27;97203;-73
2023/03/20 10:27:58;;;;;;;19.60;8.80;;;;;;;16.69;48.60;101417.53;5072277;27;96973;-74
2023/03/20 10:30:47;;;;;;;19.95;8.75;;;;;;;16.57;48.48;101415.44;5074968;27;98024;-74
2023/03/20 10:33:26;;;;;;;17.38;8.43;;;;;;;16.24;49.33;101421.50;5077305;27;99215;-73
2023/03/20 10:36:02;;;;;;;16.00;8.30;;;;;;;16.41;48.90;101415.34;5079581;27;97587;-74
2023/03/20 10:38:39;;;;;;;16.73;8.80;;;;;;;16.54;48.87;101413.78;5074614;27;98403;-72
2023/03/20 10:41:14;;;;;;;17.50;8.57;;;;;;;16.95;47.93;101414.41;5077632;27;99075;-73
2023/03/20 10:43:43;;;;;;;16.40;8.90;;;;;;;17.05;47.34;101404.13;5076480;27;98592;-74
2023/03/20 10:46:13;;;;;;;14.57;8.52;;;;;;;16.78;47.62;101405.53;5076339;27;97587;-73
2023/03/20 10:48:45;;;;;;;15.40;8.90;;;;;;;16.79;47.50;101407.28;5081239;27;97215;-74
2023/03/20 10:51:25;;;;;;;16.50;8.73;;;;;;;17.11;47.29;101402.00;5082803;27;99237;-72
2023/03/20 10:53:54;;;;;;;19.98;9.98;;;;;;;17.33;46.42;101408.88;5081714;27;100223;-72
2023/03/20 10:56:29;;;;;;;18.92;9.90;;;;;;;17.41;46.65;101407.53;5082803;27;96906;-74
2023/03/20 10:59:03;;;;;;;16.13;7.88;;;;;;;17.35;46.20;101398.97;5076383;27;96880;-73
2023/03/20 11:01:29;;;;;;;13.73;7.47;;;;;;;16.78;47.76;101413.56;5073598;27;98903;-73
2023/03/20 11:03:56;;;;;;;14.57;7.50;;;;;;;16.89;47.31;101401.38;5073690;27;99253;-72
2023/03/20 11:06:27;;;;;;;13.60;7.47;;;;;;;16.99;46.84;101405.31;5076781;27;97246;-74
2023/03/20 11:08:53;;;;;;;13.23;7.47;;;;;;;17.13;46.89;101397.44;5076432;27;96969;-73
2023/03/20 11:11:27;;;;;;;15.93;7.45;;;;;;;17.44;46.02;101395.81;5074507;27;99021;-73
2023/03/20 11:13:54;;;;;;;12.52;6.70;;;;;;;17.23;45.95;101395.16;5078551;27;98727;-73
2023/03/20 11:16:23;;;;;;;13.60;7.80;;;;;;;17.22;45.79;101392.56;5073904;27;97163;-74
2023/03/20 11:18:52;;;;;;;14.10;7.57;;;;;;;17.25;45.98;101387.94;5073338;27;97221;-73
2023/03/20 11:21:22;;;;;;;13.18;6.70;;;;;;;17.31;45.97;101392.09;5075547;27;100598;-73
2023/03/20 11:23:49;;;;;;;11.50;6.72;;;;;;;17.07;46.69;101397.75;5076662;27;96983;-72
2023/03/20 11:26:18;;;;;;;12.70;7.35;;;;;;;17.02;46.62;101402.47;5077044;27;96786;-73
2023/03/20 11:28:52;;;;;;;12.90;7.50;;;;;;;17.29;46.49;101400.16;5081798;27;98850;-73